Terminal Aerodrome Forecast
Issued by NWS

Home | Current Version | Previous Version | Text Only | Print | Product List | Glossary On
Versions: 1 2 3 4 5 6 7 8 9 10 11 12 13 14 15
931
FTUS41 KLWX 122113 AAA
TAFMTN
TAF AMD
KMTN 122113Z 1221/1318 18007KT P6SM BKN050 OVC070
     FM122300 19006KT 3SM -SHSN SCT010 BKN050
     FM130500 26008KT P6SM BKN035 BKN060
     FM130800 28020G33KT P6SM BKN050 BKN060
     FM131100 30024G39KT P6SM FEW080 SCT090=

USA.gov is the U.S. government's official web portal to all federal, state and local government web resources and services.